createdAt,value
2022-10-24T00:04:19.738Z,94616.44
2022-10-24T00:14:26.109Z,94622.28
2022-10-24T00:24:32.418Z,94679.91
2022-10-24T00:34:38.909Z,94684.06
2022-10-24T00:44:45.884Z,94686.03
2022-10-24T00:54:52.920Z,94731.00
2022-10-24T01:04:59.244Z,94735.03
2022-10-24T01:15:22.805Z,94725.63
2022-10-24T01:25:41.647Z,94746.69
2022-10-24T01:35:53.008Z,94764.09
2022-10-24T01:46:03.223Z,94794.31
2022-10-24T01:56:09.523Z,94824.19
2022-10-24T02:06:28.276Z,94846.03
2022-10-24T02:16:35.534Z,94865.31
2022-10-24T02:27:17.290Z,94855.34
2022-10-24T02:37:24.822Z,94847.22
2022-10-24T02:47:32.640Z,94841.78
2022-10-24T02:57:39.191Z,94823.69
2022-10-24T03:07:45.455Z,94812.97
2022-10-24T03:17:51.699Z,94838.50
2022-10-24T03:27:58.017Z,94802.97
2022-10-24T03:38:04.319Z,94583.88
2022-10-24T03:48:10.630Z,94618.72
2022-10-24T03:58:16.927Z,94638.06
2022-10-24T04:08:23.179Z,94689.97
2022-10-24T04:18:29.669Z,94707.41
2022-10-24T04:28:35.997Z,94712.56
2022-10-24T04:38:42.244Z,94610.16
2022-10-24T04:48:48.495Z,94443.66
2022-10-24T04:58:54.802Z,94364.00
2022-10-24T05:09:01.072Z,94351.00
2022-10-24T05:19:07.565Z,94350.97
2022-10-24T05:29:14.027Z,94366.81
2022-10-24T05:39:20.511Z,94400.97
2022-10-24T05:49:26.804Z,94454.03
2022-10-24T05:59:33.097Z,94489.72
2022-10-24T06:09:41.843Z,94496.38
2022-10-24T06:19:50.287Z,94539.19
2022-10-24T06:29:56.535Z,94586.84
2022-10-24T06:40:02.820Z,94610.59
2022-10-24T06:50:09.360Z,94627.25
2022-10-24T07:00:16.193Z,94637.88
2022-10-24T07:10:22.544Z,94635.13
2022-10-24T07:20:28.945Z,94576.16
2022-10-24T07:30:35.402Z,94641.78
2022-10-24T07:40:41.663Z,94772.63
2022-10-24T07:50:49.041Z,94941.69
2022-10-24T08:00:55.403Z,95068.75
2022-10-24T08:21:13.523Z,95118.75
2022-10-24T08:31:22.537Z,95183.94
2022-10-24T08:41:38.185Z,95196.06
2022-10-24T08:51:52.023Z,95227.22
2022-10-24T09:02:18.975Z,95241.62
2022-10-24T09:12:25.473Z,95218.72
2022-10-24T09:22:33.936Z,95231.44
2022-10-24T09:32:40.238Z,95278.28
2022-10-24T09:42:58.513Z,95304.66
2022-10-24T09:53:05.965Z,95330.50
2022-10-24T10:03:23.904Z,95372.78
2022-10-24T10:13:31.714Z,95296.00
2022-10-24T10:23:42.210Z,95371.19
2022-10-24T10:34:08.187Z,95490.19
2022-10-24T10:44:36.372Z,95596.91
2022-10-24T10:55:08.865Z,95692.34
2022-10-24T11:05:45.943Z,95679.69
2022-10-24T11:15:55.538Z,95773.59
2022-10-24T11:26:35.435Z,95873.47
2022-10-24T11:36:55.750Z,95991.16
2022-10-24T11:47:25.660Z,96037.84
2022-10-24T11:57:32.689Z,96036.63
2022-10-24T12:08:00.471Z,96029.22
2022-10-24T12:18:27.995Z,95924.94
2022-10-24T12:28:34.800Z,95917.19
2022-10-24T12:38:41.296Z,95921.97
2022-10-24T12:48:59.759Z,95940.47
2022-10-24T12:59:20.437Z,95915.81
2022-10-24T13:09:36.477Z,95896.72
2022-10-24T13:19:42.858Z,95844.56
2022-10-24T13:29:52.172Z,95864.03
2022-10-24T13:40:33.856Z,95812.75
2022-10-24T13:50:47.394Z,95744.72
2022-10-24T14:01:18.529Z,95680.66
2022-10-24T14:11:26.988Z,95653.28
2022-10-24T14:21:41.441Z,95705.06
2022-10-24T14:31:47.712Z,95786.59
2022-10-24T14:41:54.511Z,95744.47
2022-10-24T14:52:15.762Z,95664.91
2022-10-24T15:02:21.904Z,95629.22
2022-10-24T15:13:05.015Z,95591.34
2022-10-24T15:23:22.837Z,95573.28
2022-10-24T15:33:29.163Z,95567.09
2022-10-24T15:43:36.018Z,95558.03
2022-10-24T15:53:43.013Z,95548.81
2022-10-24T16:03:49.322Z,95534.22
2022-10-24T17:16:50.150Z,95221.66
2022-10-24T17:26:56.671Z,95077.13
2022-10-24T17:37:21.484Z,94830.84
2022-10-24T17:47:27.800Z,94951.09
2022-10-24T17:57:34.144Z,94867.12
2022-10-24T18:07:40.472Z,94828.00
2022-10-24T18:17:47.482Z,94755.94
2022-10-24T18:27:54.030Z,94665.28
2022-10-24T18:38:00.395Z,94623.69
2022-10-24T18:48:06.933Z,94585.97
2022-10-24T18:58:14.999Z,94553.41
2022-10-24T19:08:23.564Z,94545.06
2022-10-24T19:18:31.986Z,94538.91
2022-10-24T19:28:38.298Z,94553.56
2022-10-24T19:38:44.633Z,94556.12
2022-10-24T19:48:51.454Z,94524.97
2022-10-24T19:58:57.792Z,94473.78
2022-10-24T20:09:04.097Z,94418.34
2022-10-24T20:19:10.407Z,94206.50
2022-10-24T20:29:16.784Z,93617.81
2022-10-24T20:39:23.326Z,93435.38
2022-10-24T20:49:29.572Z,93278.59
2022-10-24T20:59:35.882Z,93097.94
2022-10-24T21:09:42.159Z,93035.53
2022-10-24T21:19:48.489Z,93013.13
2022-10-24T21:29:54.742Z,92958.22
2022-10-24T21:40:01.013Z,92982.16
2022-10-24T21:50:07.396Z,93041.87
2022-10-24T22:00:20.573Z,93110.34
2022-10-24T22:10:26.818Z,93160.78
2022-10-24T22:20:33.067Z,93196.13
2022-10-24T22:30:40.483Z,93278.59
2022-10-24T22:40:47.378Z,93334.22
2022-10-24T22:50:56.000Z,93345.41
2022-10-24T23:01:06.882Z,93404.78
2022-10-24T23:11:14.224Z,93691.22
2022-10-24T23:21:28.398Z,93817.38
2022-10-24T23:31:34.770Z,93843.44
2022-10-24T23:41:41.562Z,93850.25
2022-10-24T23:52:15.447Z,93872.87
